createdAt,value
2022-12-12T00:04:03.712Z,16.00
2022-12-12T00:09:05.556Z,14.43
2022-12-12T00:14:07.119Z,15.48
2022-12-12T00:19:08.762Z,14.80
2022-12-12T00:24:11.057Z,14.15
2022-12-12T00:29:12.671Z,12.27
2022-12-12T00:34:14.268Z,12.30
2022-12-12T00:39:18.480Z,13.13
2022-12-12T00:44:20.198Z,12.18
2022-12-12T00:49:21.755Z,12.52
2022-12-12T00:54:23.273Z,11.13
2022-12-12T00:59:24.786Z,13.10
2022-12-12T01:04:26.307Z,12.30
2022-12-12T01:09:27.847Z,13.00
2022-12-12T01:14:29.567Z,14.13
2022-12-12T01:19:31.109Z,12.68
2022-12-12T01:24:32.659Z,11.38
2022-12-12T01:29:34.923Z,11.93
2022-12-12T01:34:36.434Z,12.10
2022-12-12T01:39:38.903Z,12.32
2022-12-12T01:44:45.184Z,11.05
2022-12-12T01:50:01.346Z,11.98
2022-12-12T01:55:06.228Z,7.68
2022-12-12T02:00:11.115Z,10.00
2022-12-12T02:05:23.433Z,10.82
2022-12-12T02:10:25.282Z,9.85
2022-12-12T02:15:34.630Z,10.63
2022-12-12T02:21:04.291Z,9.10
2022-12-12T02:26:24.327Z,10.07
2022-12-12T02:31:30.366Z,9.35
2022-12-12T02:36:43.084Z,9.10
2022-12-12T02:41:54.073Z,9.50
2022-12-12T02:47:07.887Z,8.93
2022-12-12T02:52:11.225Z,9.18
2022-12-12T02:57:21.048Z,9.20
2022-12-12T03:02:37.526Z,9.48
2022-12-12T03:08:04.280Z,8.82
2022-12-12T03:13:23.933Z,8.10
2022-12-12T03:18:37.673Z,8.05
2022-12-12T03:23:47.282Z,8.05
2022-12-12T03:28:55.929Z,7.80
2022-12-12T03:34:02.582Z,7.72
2022-12-12T03:39:11.568Z,8.65
2022-12-12T03:44:22.141Z,6.38
2022-12-12T03:49:33.193Z,7.00
2022-12-12T03:54:41.873Z,6.10
2022-12-12T03:59:59.682Z,6.93
2022-12-12T04:05:16.457Z,8.93
2022-12-12T04:10:18.497Z,7.22
2022-12-12T04:15:41.517Z,7.35
2022-12-12T04:21:28.181Z,8.45
2022-12-12T04:26:46.911Z,4.63
2022-12-12T04:32:12.217Z,7.18
2022-12-12T04:37:19.905Z,7.47
2022-12-12T04:42:25.027Z,7.85
2022-12-12T04:47:31.134Z,6.88
2022-12-12T04:52:34.200Z,6.93
2022-12-12T04:57:41.265Z,5.80
2022-12-12T05:02:57.545Z,6.63
2022-12-12T05:08:32.431Z,6.90
2022-12-12T05:13:37.941Z,6.47
2022-12-12T05:18:39.503Z,5.97
2022-12-12T05:23:41.394Z,7.20
2022-12-12T05:28:42.895Z,7.82
2022-12-12T05:33:44.527Z,6.55
2022-12-12T05:38:46.084Z,5.57
2022-12-12T05:43:48.482Z,6.82
2022-12-12T05:48:49.989Z,6.57
2022-12-12T05:53:51.522Z,6.47
2022-12-12T05:58:53.038Z,6.50
2022-12-12T06:03:54.606Z,7.10
2022-12-12T06:08:56.158Z,6.07
2022-12-12T06:13:57.752Z,6.55
2022-12-12T06:18:59.341Z,8.07
2022-12-12T06:24:00.885Z,6.80
2022-12-12T06:29:02.711Z,6.93
2022-12-12T06:34:04.302Z,6.70
2022-12-12T06:39:05.992Z,7.00
2022-12-12T06:44:07.658Z,7.60
2022-12-12T06:49:09.152Z,7.35
2022-12-12T06:54:15.734Z,8.90
2022-12-12T06:59:17.398Z,8.68
2022-12-12T07:04:18.881Z,6.40
2022-12-12T07:09:20.564Z,9.02
2022-12-12T07:14:22.134Z,7.30
2022-12-12T07:19:23.683Z,7.70
2022-12-12T07:24:25.196Z,8.32
2022-12-12T07:29:26.971Z,7.28
2022-12-12T07:34:29.674Z,8.30
2022-12-12T07:39:32.405Z,8.90
2022-12-12T07:44:34.224Z,8.85
2022-12-12T07:49:35.747Z,9.70
2022-12-12T07:54:38.729Z,8.80
2022-12-12T07:59:40.379Z,9.70
2022-12-12T08:04:41.950Z,8.55
2022-12-12T08:09:43.627Z,9.23
2022-12-12T08:14:45.358Z,9.43
2022-12-12T08:19:46.849Z,8.43
2022-12-12T08:24:49.531Z,9.85
2022-12-12T08:29:52.802Z,9.77
2022-12-12T08:34:58.221Z,8.10
2022-12-12T08:39:59.947Z,7.88
2022-12-12T08:45:01.502Z,8.95
2022-12-12T08:50:04.434Z,8.32
2022-12-12T08:55:07.214Z,8.73
2022-12-12T09:00:09.515Z,9.05
2022-12-12T09:05:11.419Z,9.43
2022-12-12T09:10:13.159Z,8.77
2022-12-12T09:15:15.232Z,8.13
2022-12-12T09:20:17.148Z,7.32
2022-12-12T09:25:18.778Z,7.78
2022-12-12T09:30:20.388Z,6.95
2022-12-12T09:35:22.162Z,7.72
2022-12-12T09:40:32.818Z,7.80
2022-12-12T09:45:37.027Z,7.50
2022-12-12T09:50:47.856Z,7.45
2022-12-12T09:56:05.319Z,7.65
2022-12-12T10:01:18.522Z,7.13
2022-12-12T10:06:37.273Z,7.63
2022-12-12T10:11:42.254Z,8.88
2022-12-12T10:16:44.181Z,7.97
2022-12-12T10:21:47.877Z,8.35
2022-12-12T10:26:49.542Z,8.80
2022-12-12T10:32:26.719Z,7.53
2022-12-12T10:38:05.827Z,9.30
2022-12-12T10:43:22.372Z,9.85
2022-12-12T10:48:24.013Z,7.35
2022-12-12T10:53:26.055Z,7.75
2022-12-12T10:58:36.401Z,8.20
2022-12-12T11:03:52.442Z,8.25
2022-12-12T11:09:22.803Z,8.75
2022-12-12T11:14:33.680Z,7.72
2022-12-12T11:19:38.855Z,7.35
2022-12-12T11:24:45.257Z,9.00
2022-12-12T11:29:53.861Z,8.85
2022-12-12T11:34:59.022Z,6.47
2022-12-12T11:40:00.692Z,7.05
2022-12-12T11:45:25.974Z,6.80
2022-12-12T11:50:29.799Z,6.72
2022-12-12T11:55:54.712Z,6.85
2022-12-12T12:01:07.133Z,6.53
2022-12-12T12:06:51.645Z,7.10
2022-12-12T12:12:10.164Z,7.47
2022-12-12T12:18:05.697Z,7.07
2022-12-12T12:23:41.216Z,7.45
2022-12-12T12:29:05.751Z,6.60
2022-12-12T12:34:40.921Z,8.32
2022-12-12T12:40:03.096Z,6.20
2022-12-12T12:45:38.277Z,6.63
2022-12-12T12:51:06.772Z,6.90
2022-12-12T12:56:30.115Z,7.35
2022-12-12T13:01:34.511Z,7.25
2022-12-12T13:06:42.365Z,6.38
2022-12-12T13:11:48.966Z,6.85
2022-12-12T13:22:16.580Z,7.28
2022-12-12T13:27:41.014Z,6.63
2022-12-12T13:32:57.468Z,7.00
2022-12-12T13:38:00.381Z,6.78
2022-12-12T13:43:09.528Z,7.63
2022-12-12T13:48:27.166Z,7.50
2022-12-12T13:53:28.746Z,7.38
2022-12-12T13:58:34.169Z,7.18
2022-12-12T14:03:36.863Z,7.72
2022-12-12T14:08:48.407Z,8.27
2022-12-12T14:13:50.056Z,7.47
2022-12-12T14:18:52.295Z,6.65
2022-12-12T14:23:53.878Z,7.18
2022-12-12T14:29:17.484Z,7.57
2022-12-12T14:34:34.472Z,8.93
2022-12-12T14:39:55.837Z,7.78
2022-12-12T14:44:57.508Z,7.82
2022-12-12T14:50:11.168Z,8.70
2022-12-12T14:55:16.110Z,8.05
2022-12-12T15:00:19.397Z,8.02
2022-12-12T15:05:21.236Z,7.80
2022-12-12T15:10:30.087Z,8.38
2022-12-12T15:15:34.068Z,9.02
2022-12-12T15:20:35.824Z,9.13
2022-12-12T15:25:46.617Z,9.52
2022-12-12T15:30:53.019Z,9.77
2022-12-12T15:36:02.410Z,9.32
2022-12-12T15:41:12.711Z,9.15
2022-12-12T15:46:15.900Z,9.00
2022-12-12T15:51:24.649Z,10.18
2022-12-12T15:56:28.643Z,11.80
2022-12-12T16:01:31.013Z,10.35
2022-12-12T16:06:36.912Z,13.30
2022-12-12T16:11:52.948Z,14.75
2022-12-12T16:17:06.602Z,14.85
2022-12-12T16:22:17.558Z,17.58
2022-12-12T16:27:19.963Z,18.13
2022-12-12T16:32:23.206Z,18.77
2022-12-12T16:37:24.846Z,19.33
2022-12-12T16:42:28.096Z,12.40
2022-12-12T16:47:30.721Z,13.23
2022-12-12T16:52:32.215Z,14.68
2022-12-12T16:57:33.790Z,22.75
2022-12-12T17:02:35.326Z,20.17
2022-12-12T17:07:36.919Z,39.83
2022-12-12T17:12:38.902Z,25.77
2022-12-12T17:17:40.641Z,18.85
2022-12-12T17:22:42.669Z,18.40
2022-12-12T17:27:44.579Z,17.00
2022-12-12T17:38:05.743Z,14.65
2022-12-12T17:43:07.353Z,13.48
2022-12-12T17:48:09.092Z,16.83
2022-12-12T17:53:10.630Z,14.25
2022-12-12T17:58:12.245Z,16.77
2022-12-12T18:03:13.770Z,16.50
2022-12-12T18:08:15.401Z,22.05
2022-12-12T18:13:16.970Z,21.92
2022-12-12T18:18:18.581Z,24.20
2022-12-12T18:23:20.195Z,26.95
2022-12-12T18:28:21.818Z,20.75
2022-12-12T18:33:23.508Z,23.52
2022-12-12T18:38:25.153Z,25.17
2022-12-12T18:43:27.644Z,28.60
2022-12-12T18:48:29.444Z,31.10
2022-12-12T18:53:31.027Z,25.35
2022-12-12T18:58:33.981Z,20.30
2022-12-12T19:03:36.766Z,18.00
2022-12-12T19:08:39.078Z,17.20
2022-12-12T19:13:40.918Z,16.55
2022-12-12T19:18:43.312Z,17.17
2022-12-12T19:23:45.791Z,16.58
2022-12-12T19:28:47.386Z,16.50
2022-12-12T19:33:49.108Z,16.70
2022-12-12T19:38:51.802Z,17.83
2022-12-12T19:43:54.120Z,17.08
2022-12-12T19:48:57.956Z,19.30
2022-12-12T19:54:02.987Z,16.60
2022-12-12T19:59:04.896Z,28.23
2022-12-12T20:04:08.763Z,18.20
2022-12-12T20:09:15.733Z,15.27
2022-12-12T20:14:20.913Z,18.13
2022-12-12T20:19:24.896Z,18.95
2022-12-12T20:24:26.501Z,18.10
2022-12-12T20:29:28.073Z,20.35
2022-12-12T20:34:29.942Z,17.50
2022-12-12T20:39:31.625Z,20.02
2022-12-12T20:44:33.289Z,16.48
2022-12-12T20:49:34.822Z,17.60
2022-12-12T20:54:36.493Z,17.85
2022-12-12T20:59:38.256Z,21.60
2022-12-12T21:04:39.859Z,20.90
2022-12-12T21:09:41.541Z,19.05
2022-12-12T21:14:43.613Z,21.60
2022-12-12T21:19:45.289Z,18.50
2022-12-12T21:24:47.624Z,20.05
2022-12-12T21:29:49.250Z,20.30
2022-12-12T21:34:50.952Z,23.27
2022-12-12T21:39:52.619Z,19.73
2022-12-12T21:44:54.141Z,21.13
2022-12-12T21:49:55.657Z,21.02
2022-12-12T21:54:57.311Z,20.83
2022-12-12T21:59:58.858Z,20.85
2022-12-12T22:05:00.438Z,22.90
2022-12-12T22:10:10.783Z,22.35
2022-12-12T22:15:13.459Z,21.35
2022-12-12T22:20:15.273Z,22.08
2022-12-12T22:25:19.877Z,21.92
2022-12-12T22:30:21.557Z,24.38
2022-12-12T22:35:23.211Z,22.65
2022-12-12T22:40:24.798Z,21.70
2022-12-12T22:45:26.440Z,24.23
2022-12-12T22:50:28.036Z,22.92
2022-12-12T22:55:29.623Z,21.33
2022-12-12T23:00:31.395Z,22.73
2022-12-12T23:05:33.077Z,23.40
2022-12-12T23:10:35.036Z,22.17
2022-12-12T23:15:36.802Z,23.80
2022-12-12T23:20:38.339Z,22.25
2022-12-12T23:25:39.973Z,23.27
2022-12-12T23:30:41.625Z,21.90
2022-12-12T23:35:48.044Z,24.10
2022-12-12T23:40:49.653Z,27.00
2022-12-12T23:45:51.273Z,27.42
2022-12-12T23:50:52.847Z,27.42
2022-12-12T23:55:54.483Z,26.77
